Terminal Aerodrome Forecast
Issued by NWS Sioux Falls, SD

Home | Current Version | Previous Version | Graphics & Text | Print | Product List | Glossary Off
Versions: 1 2 3 4 5 6 7 8 9 10 11 12 13 14 15 16 17 18 19 20 21 22 23 24 25 26 27

000
FTUS43 KFSD 222339
TAFSUX
TAF
KSUX 222339Z 2300/2324 16007KT P6SM BKN200
     FM230600 16008KT P6SM BKN080
     FM231100 15008KT P6SM OVC070
     FM231500 15012G18KT P6SM OVC050
      TEMPO 2315/2318 -SHRA
     FM231800 16015G21KT P6SM -SHRA OVC060=

USA.gov is the U.S. government's official web portal to all federal, state and local government web resources and services.